sensor_id;sensor_type;location;lat;lon;timestamp;temperature;humidity
60033;DHT22;45905;50.570;10.428;2023-08-24T00:00:38;18.10;93.20
60033;DHT22;45905;50.570;10.428;2023-08-24T00:03:06;17.70;93.10
60033;DHT22;45905;50.570;10.428;2023-08-24T00:05:37;18.20;93.70
60033;DHT22;45905;50.570;10.428;2023-08-24T00:08:07;17.70;93.50
60033;DHT22;45905;50.570;10.428;2023-08-24T00:10:36;17.80;93.40
60033;DHT22;45905;50.570;10.428;2023-08-24T00:13:03;18.00;93.80
60033;DHT22;45905;50.570;10.428;2023-08-24T00:15:31;17.80;93.90
60033;DHT22;45905;50.570;10.428;2023-08-24T00:17:58;17.60;93.80
60033;DHT22;45905;50.570;10.428;2023-08-24T00:20:26;17.60;93.30
60033;DHT22;45905;50.570;10.428;2023-08-24T00:22:54;17.40;93.20
60033;DHT22;45905;50.570;10.428;2023-08-24T00:25:21;17.50;93.80
60033;DHT22;45905;50.570;10.428;2023-08-24T00:27:48;17.60;94.10
60033;DHT22;45905;50.570;10.428;2023-08-24T00:30:16;17.60;94.20
60033;DHT22;45905;50.570;10.428;2023-08-24T00:32:44;17.50;94.10
60033;DHT22;45905;50.570;10.428;2023-08-24T00:35:11;17.50;94.00
60033;DHT22;45905;50.570;10.428;2023-08-24T00:37:39;17.50;94.20
60033;DHT22;45905;50.570;10.428;2023-08-24T00:40:07;16.50;93.90
60033;DHT22;45905;50.570;10.428;2023-08-24T00:42:39;17.40;94.00
60033;DHT22;45905;50.570;10.428;2023-08-24T00:45:08;17.40;93.70
60033;DHT22;45905;50.570;10.428;2023-08-24T00:47:42;17.30;94.40
60033;DHT22;45905;50.570;10.428;2023-08-24T00:50:12;17.30;94.60
60033;DHT22;45905;50.570;10.428;2023-08-24T00:52:42;14.00;93.10
60033;DHT22;45905;50.570;10.428;2023-08-24T00:55:10;17.30;94.70
60033;DHT22;45905;50.570;10.428;2023-08-24T00:57:40;17.20;94.60
60033;DHT22;45905;50.570;10.428;2023-08-24T01:00:10;17.20;94.60
60033;DHT22;45905;50.570;10.428;2023-08-24T01:02:38;17.10;94.40
60033;DHT22;45905;50.570;10.428;2023-08-24T01:05:06;16.90;94.60
60033;DHT22;45905;50.570;10.428;2023-08-24T01:07:39;17.10;94.90
60033;DHT22;45905;50.570;10.428;2023-08-24T01:10:09;17.90;95.40
60033;DHT22;45905;50.570;10.428;2023-08-24T01:13:08;17.10;95.10
60033;DHT22;45905;50.570;10.428;2023-08-24T01:16:06;17.00;94.90
60033;DHT22;45905;50.570;10.428;2023-08-24T01:18:41;17.00;95.10
60033;DHT22;45905;50.570;10.428;2023-08-24T01:21:10;17.10;95.50
60033;DHT22;45905;50.570;10.428;2023-08-24T01:23:49;17.00;95.10
60033;DHT22;45905;50.570;10.428;2023-08-24T01:26:40;17.00;94.80
60033;DHT22;45905;50.570;10.428;2023-08-24T01:29:08;16.70;94.80
60033;DHT22;45905;50.570;10.428;2023-08-24T01:31:37;16.80;95.20
60033;DHT22;45905;50.570;10.428;2023-08-24T01:34:04;16.80;95.00
60033;DHT22;45905;50.570;10.428;2023-08-24T01:36:32;16.90;94.90
60033;DHT22;45905;50.570;10.428;2023-08-24T01:39:22;16.40;95.10
60033;DHT22;45905;50.570;10.428;2023-08-24T01:42:02;16.90;95.30
60033;DHT22;45905;50.570;10.428;2023-08-24T01:44:35;16.80;95.50
60033;DHT22;45905;50.570;10.428;2023-08-24T01:47:07;16.50;95.20
60033;DHT22;45905;50.570;10.428;2023-08-24T01:49:39;16.80;94.90
60033;DHT22;45905;50.570;10.428;2023-08-24T01:52:09;16.70;95.10
60033;DHT22;45905;50.570;10.428;2023-08-24T01:54:37;16.60;95.50
60033;DHT22;45905;50.570;10.428;2023-08-24T01:57:05;16.70;95.70
60033;DHT22;45905;50.570;10.428;2023-08-24T01:59:33;16.80;95.80
60033;DHT22;45905;50.570;10.428;2023-08-24T02:02:00;16.30;95.60
60033;DHT22;45905;50.570;10.428;2023-08-24T02:04:28;16.70;95.80
60033;DHT22;45905;50.570;10.428;2023-08-24T02:06:55;16.60;96.00
60033;DHT22;45905;50.570;10.428;2023-08-24T02:09:23;16.50;96.20
60033;DHT22;45905;50.570;10.428;2023-08-24T02:11:51;16.50;96.30
60033;DHT22;45905;50.570;10.428;2023-08-24T02:14:18;16.40;96.20
60033;DHT22;45905;50.570;10.428;2023-08-24T02:16:45;16.50;96.00
60033;DHT22;45905;50.570;10.428;2023-08-24T02:19:13;16.50;96.10
60033;DHT22;45905;50.570;10.428;2023-08-24T02:21:40;16.40;95.90
60033;DHT22;45905;50.570;10.428;2023-08-24T02:24:08;16.50;96.20
60033;DHT22;45905;50.570;10.428;2023-08-24T02:26:35;16.40;96.30
60033;DHT22;45905;50.570;10.428;2023-08-24T02:29:02;16.20;96.30
60033;DHT22;45905;50.570;10.428;2023-08-24T02:31:29;19.10;97.70
60033;DHT22;45905;50.570;10.428;2023-08-24T02:33:57;16.30;96.60
60033;DHT22;45905;50.570;10.428;2023-08-24T02:36:25;16.40;96.80
60033;DHT22;45905;50.570;10.428;2023-08-24T02:38:52;16.40;96.20
60033;DHT22;45905;50.570;10.428;2023-08-24T02:41:19;16.30;95.80
60033;DHT22;45905;50.570;10.428;2023-08-24T02:43:46;16.20;96.30
60033;DHT22;45905;50.570;10.428;2023-08-24T02:46:14;16.30;96.60
60033;DHT22;45905;50.570;10.428;2023-08-24T02:48:41;16.20;96.90
60033;DHT22;45905;50.570;10.428;2023-08-24T02:51:08;15.50;96.30
60033;DHT22;45905;50.570;10.428;2023-08-24T02:53:36;16.10;96.80
60033;DHT22;45905;50.570;10.428;2023-08-24T02:56:03;16.20;96.90
60033;DHT22;45905;50.570;10.428;2023-08-24T02:58:31;15.50;96.60
60033;DHT22;45905;50.570;10.428;2023-08-24T03:00:59;16.10;97.20
60033;DHT22;45905;50.570;10.428;2023-08-24T03:03:26;16.00;96.60
60033;DHT22;45905;50.570;10.428;2023-08-24T03:05:58;16.10;96.70
60033;DHT22;45905;50.570;10.428;2023-08-24T03:08:30;16.10;96.30
60033;DHT22;45905;50.570;10.428;2023-08-24T03:10:59;16.00;96.60
60033;DHT22;45905;50.570;10.428;2023-08-24T03:13:28;16.00;96.90
60033;DHT22;45905;50.570;10.428;2023-08-24T03:15:56;15.90;96.80
60033;DHT22;45905;50.570;10.428;2023-08-24T03:18:27;15.90;96.90
60033;DHT22;45905;50.570;10.428;2023-08-24T03:20:55;16.00;97.00
60033;DHT22;45905;50.570;10.428;2023-08-24T03:23:23;15.90;97.00
60033;DHT22;45905;50.570;10.428;2023-08-24T03:25:50;15.90;97.00
60033;DHT22;45905;50.570;10.428;2023-08-24T03:28:19;16.00;96.70
60033;DHT22;45905;50.570;10.428;2023-08-24T03:30:48;15.80;96.20
60033;DHT22;45905;50.570;10.428;2023-08-24T03:33:17;15.90;96.40
60033;DHT22;45905;50.570;10.428;2023-08-24T03:35:44;16.10;96.20
60033;DHT22;45905;50.570;10.428;2023-08-24T03:38:12;15.60;96.40
60033;DHT22;45905;50.570;10.428;2023-08-24T03:40:39;15.80;96.70
60033;DHT22;45905;50.570;10.428;2023-08-24T03:43:06;15.80;97.30
60033;DHT22;45905;50.570;10.428;2023-08-24T03:45:33;16.10;97.60
60033;DHT22;45905;50.570;10.428;2023-08-24T03:48:04;15.80;97.60
60033;DHT22;45905;50.570;10.428;2023-08-24T03:50:31;15.80;97.30
60033;DHT22;45905;50.570;10.428;2023-08-24T03:52:58;15.70;96.60
60033;DHT22;45905;50.570;10.428;2023-08-24T03:55:26;15.30;96.50
60033;DHT22;45905;50.570;10.428;2023-08-24T03:57:53;15.70;96.50
60033;DHT22;45905;50.570;10.428;2023-08-24T04:00:24;15.50;96.20
60033;DHT22;45905;50.570;10.428;2023-08-24T04:02:53;15.70;96.40
60033;DHT22;45905;50.570;10.428;2023-08-24T04:05:24;15.70;96.20
60033;DHT22;45905;50.570;10.428;2023-08-24T04:07:52;15.40;96.50
60033;DHT22;45905;50.570;10.428;2023-08-24T04:10:20;15.50;96.80
60033;DHT22;45905;50.570;10.428;2023-08-24T04:12:47;15.50;96.50
60033;DHT22;45905;50.570;10.428;2023-08-24T04:15:14;15.60;96.80
60033;DHT22;45905;50.570;10.428;2023-08-24T04:17:41;15.60;96.90
60033;DHT22;45905;50.570;10.428;2023-08-24T04:20:11;15.50;97.40
60033;DHT22;45905;50.570;10.428;2023-08-24T04:22:38;15.50;97.70
60033;DHT22;45905;50.570;10.428;2023-08-24T04:25:06;15.60;97.90
60033;DHT22;45905;50.570;10.428;2023-08-24T04:27:34;15.60;97.80
60033;DHT22;45905;50.570;10.428;2023-08-24T04:30:02;15.60;97.90
60033;DHT22;45905;50.570;10.428;2023-08-24T04:32:32;15.60;98.10
60033;DHT22;45905;50.570;10.428;2023-08-24T04:34:59;16.10;97.70
60033;DHT22;45905;50.570;10.428;2023-08-24T04:37:26;15.60;97.60
60033;DHT22;45905;50.570;10.428;2023-08-24T04:39:54;15.50;97.70
60033;DHT22;45905;50.570;10.428;2023-08-24T04:42:21;15.60;97.20
60033;DHT22;45905;50.570;10.428;2023-08-24T04:44:50;15.60;97.00
60033;DHT22;45905;50.570;10.428;2023-08-24T04:47:18;15.20;96.70
60033;DHT22;45905;50.570;10.428;2023-08-24T04:49:45;15.50;97.10
60033;DHT22;45905;50.570;10.428;2023-08-24T04:52:12;15.30;97.70
60033;DHT22;45905;50.570;10.428;2023-08-24T04:54:39;15.40;97.90
60033;DHT22;45905;50.570;10.428;2023-08-24T04:57:07;15.50;97.90
60033;DHT22;45905;50.570;10.428;2023-08-24T04:59:34;15.50;97.70
60033;DHT22;45905;50.570;10.428;2023-08-24T05:02:01;15.70;97.50
60033;DHT22;45905;50.570;10.428;2023-08-24T05:04:29;15.90;97.30
60033;DHT22;45905;50.570;10.428;2023-08-24T05:06:56;15.50;97.50
60033;DHT22;45905;50.570;10.428;2023-08-24T05:09:23;15.40;97.50
60033;DHT22;45905;50.570;10.428;2023-08-24T05:11:50;15.50;97.80
60033;DHT22;45905;50.570;10.428;2023-08-24T05:14:17;15.60;98.20
60033;DHT22;45905;50.570;10.428;2023-08-24T05:16:45;15.40;98.20
60033;DHT22;45905;50.570;10.428;2023-08-24T05:19:12;15.80;98.40
60033;DHT22;45905;50.570;10.428;2023-08-24T05:21:39;15.70;98.20
60033;DHT22;45905;50.570;10.428;2023-08-24T05:24:07;15.50;98.30
60033;DHT22;45905;50.570;10.428;2023-08-24T05:26:34;15.50;98.20
60033;DHT22;45905;50.570;10.428;2023-08-24T05:29:01;15.40;98.20
60033;DHT22;45905;50.570;10.428;2023-08-24T05:31:28;15.40;98.50
60033;DHT22;45905;50.570;10.428;2023-08-24T05:33:56;15.40;98.60
60033;DHT22;45905;50.570;10.428;2023-08-24T05:36:23;15.50;98.70
60033;DHT22;45905;50.570;10.428;2023-08-24T05:38:50;15.00;98.70
60033;DHT22;45905;50.570;10.428;2023-08-24T05:41:32;15.60;99.20
60033;DHT22;45905;50.570;10.428;2023-08-24T05:44:00;15.60;99.60
60033;DHT22;45905;50.570;10.428;2023-08-24T05:46:28;15.80;99.90
60033;DHT22;45905;50.570;10.428;2023-08-24T05:48:57;15.60;99.50
60033;DHT22;45905;50.570;10.428;2023-08-24T05:51:26;15.70;99.60
60033;DHT22;45905;50.570;10.428;2023-08-24T05:53:53;15.90;99.60
60033;DHT22;45905;50.570;10.428;2023-08-24T05:56:25;15.80;99.70
60033;DHT22;45905;50.570;10.428;2023-08-24T05:58:54;16.00;99.30
60033;DHT22;45905;50.570;10.428;2023-08-24T06:01:21;15.90;99.40
60033;DHT22;45905;50.570;10.428;2023-08-24T06:03:49;15.80;99.20
60033;DHT22;45905;50.570;10.428;2023-08-24T06:06:17;16.00;99.50
60033;DHT22;45905;50.570;10.428;2023-08-24T06:08:44;16.10;99.40
60033;DHT22;45905;50.570;10.428;2023-08-24T06:11:11;16.10;99.60
60033;DHT22;45905;50.570;10.428;2023-08-24T06:13:39;16.10;99.70
60033;DHT22;45905;50.570;10.428;2023-08-24T06:16:12;16.00;99.30
60033;DHT22;45905;50.570;10.428;2023-08-24T06:18:41;16.20;99.50
60033;DHT22;45905;50.570;10.428;2023-08-24T06:21:08;16.20;99.30
60033;DHT22;45905;50.570;10.428;2023-08-24T06:23:35;16.40;99.70
60033;DHT22;45905;50.570;10.428;2023-08-24T06:26:03;16.50;99.80
60033;DHT22;45905;50.570;10.428;2023-08-24T06:28:31;16.30;99.80
60033;DHT22;45905;50.570;10.428;2023-08-24T06:31:00;16.50;99.90
60033;DHT22;45905;50.570;10.428;2023-08-24T06:33:28;16.50;99.80
60033;DHT22;45905;50.570;10.428;2023-08-24T06:35:59;16.50;99.80
60033;DHT22;45905;50.570;10.428;2023-08-24T06:38:28;16.40;99.90
60033;DHT22;45905;50.570;10.428;2023-08-24T06:40:57;16.60;99.90
60033;DHT22;45905;50.570;10.428;2023-08-24T06:43:25;16.40;99.90
60033;DHT22;45905;50.570;10.428;2023-08-24T06:45:55;16.60;99.90
60033;DHT22;45905;50.570;10.428;2023-08-24T06:48:23;16.80;99.90
60033;DHT22;45905;50.570;10.428;2023-08-24T06:50:51;16.50;99.70
60033;DHT22;45905;50.570;10.428;2023-08-24T06:53:18;16.90;99.90
60033;DHT22;45905;50.570;10.428;2023-08-24T06:55:45;17.30;99.90
60033;DHT22;45905;50.570;10.428;2023-08-24T06:58:13;16.90;99.90
60033;DHT22;45905;50.570;10.428;2023-08-24T07:00:40;17.00;99.90
60033;DHT22;45905;50.570;10.428;2023-08-24T07:03:07;17.00;99.90
60033;DHT22;45905;50.570;10.428;2023-08-24T07:05:35;17.10;99.70
60033;DHT22;45905;50.570;10.428;2023-08-24T07:08:05;17.30;99.70
60033;DHT22;45905;50.570;10.428;2023-08-24T07:10:32;17.30;99.80
60033;DHT22;45905;50.570;10.428;2023-08-24T07:13:00;17.10;99.30
60033;DHT22;45905;50.570;10.428;2023-08-24T07:15:27;17.50;99.60
60033;DHT22;45905;50.570;10.428;2023-08-24T07:17:54;17.10;99.30
60033;DHT22;45905;50.570;10.428;2023-08-24T07:20:21;17.30;99.40
60033;DHT22;45905;50.570;10.428;2023-08-24T07:22:49;17.80;99.60
60033;DHT22;45905;50.570;10.428;2023-08-24T07:25:17;17.60;99.70
60033;DHT22;45905;50.570;10.428;2023-08-24T07:27:45;17.70;99.70
60033;DHT22;45905;50.570;10.428;2023-08-24T07:30:12;17.80;99.80
60033;DHT22;45905;50.570;10.428;2023-08-24T07:32:58;18.00;99.70
60033;DHT22;45905;50.570;10.428;2023-08-24T07:35:25;18.20;99.80
60033;DHT22;45905;50.570;10.428;2023-08-24T07:37:53;18.00;99.70
60033;DHT22;45905;50.570;10.428;2023-08-24T07:40:21;18.10;99.40
60033;DHT22;45905;50.570;10.428;2023-08-24T07:42:54;18.50;99.40
60033;DHT22;45905;50.570;10.428;2023-08-24T07:45:24;18.10;99.10
60033;DHT22;45905;50.570;10.428;2023-08-24T07:47:51;18.40;99.20
60033;DHT22;45905;50.570;10.428;2023-08-24T07:50:20;18.80;99.10
60033;DHT22;45905;50.570;10.428;2023-08-24T07:52:49;18.70;99.00
60033;DHT22;45905;50.570;10.428;2023-08-24T07:55:16;18.40;98.80
60033;DHT22;45905;50.570;10.428;2023-08-24T07:57:43;18.90;98.90
60033;DHT22;45905;50.570;10.428;2023-08-24T08:00:11;18.50;98.80
60033;DHT22;45905;50.570;10.428;2023-08-24T08:02:41;19.00;98.70
60033;DHT22;45905;50.570;10.428;2023-08-24T08:07:39;18.90;98.50
60033;DHT22;45905;50.570;10.428;2023-08-24T08:10:07;19.40;98.80
60033;DHT22;45905;50.570;10.428;2023-08-24T08:12:35;19.30;98.70
60033;DHT22;45905;50.570;10.428;2023-08-24T08:15:03;19.40;98.90
60033;DHT22;45905;50.570;10.428;2023-08-24T08:17:31;19.30;98.80
60033;DHT22;45905;50.570;10.428;2023-08-24T08:20:00;20.50;99.50
60033;DHT22;45905;50.570;10.428;2023-08-24T08:24:55;19.80;99.30
60033;DHT22;45905;50.570;10.428;2023-08-24T08:27:25;19.30;98.90
60033;DHT22;45905;50.570;10.428;2023-08-24T08:29:53;19.40;99.10
60033;DHT22;45905;50.570;10.428;2023-08-24T08:32:20;19.80;99.60
60033;DHT22;45905;50.570;10.428;2023-08-24T08:37:15;19.90;99.90
60033;DHT22;45905;50.570;10.428;2023-08-24T08:39:42;19.40;99.90
60033;DHT22;45905;50.570;10.428;2023-08-24T08:42:14;19.80;99.90
60033;DHT22;45905;50.570;10.428;2023-08-24T08:44:44;19.70;99.90
60033;DHT22;45905;50.570;10.428;2023-08-24T08:47:13;19.70;99.90
60033;DHT22;45905;50.570;10.428;2023-08-24T08:49:43;19.80;99.90
60033;DHT22;45905;50.570;10.428;2023-08-24T08:52:12;19.80;99.90
60033;DHT22;45905;50.570;10.428;2023-08-24T08:54:39;19.90;99.90
60033;DHT22;45905;50.570;10.428;2023-08-24T08:57:07;19.80;99.90
60033;DHT22;45905;50.570;10.428;2023-08-24T08:59:35;20.50;99.90
60033;DHT22;45905;50.570;10.428;2023-08-24T09:02:03;19.80;99.90
60033;DHT22;45905;50.570;10.428;2023-08-24T09:04:33;20.10;99.90
60033;DHT22;45905;50.570;10.428;2023-08-24T09:07:01;19.80;99.90
60033;DHT22;45905;50.570;10.428;2023-08-24T09:09:31;20.20;99.90
60033;DHT22;45905;50.570;10.428;2023-08-24T09:12:00;20.40;99.90
60033;DHT22;45905;50.570;10.428;2023-08-24T09:14:28;20.30;99.90
60033;DHT22;45905;50.570;10.428;2023-08-24T09:16:55;20.40;99.90
60033;DHT22;45905;50.570;10.428;2023-08-24T09:19:33;20.20;99.90
60033;DHT22;45905;50.570;10.428;2023-08-24T09:22:07;20.40;99.90
60033;DHT22;45905;50.570;10.428;2023-08-24T09:24:36;20.70;99.90
60033;DHT22;45905;50.570;10.428;2023-08-24T09:27:19;20.60;99.90
60033;DHT22;45905;50.570;10.428;2023-08-24T09:29:51;20.50;99.90
60033;DHT22;45905;50.570;10.428;2023-08-24T09:32:24;20.90;99.90
60033;DHT22;45905;50.570;10.428;2023-08-24T09:34:54;20.80;99.90
60033;DHT22;45905;50.570;10.428;2023-08-24T09:37:22;20.90;99.90
60033;DHT22;45905;50.570;10.428;2023-08-24T09:39:49;20.90;99.90
60033;DHT22;45905;50.570;10.428;2023-08-24T09:42:27;20.60;99.90
60033;DHT22;45905;50.570;10.428;2023-08-24T09:45:03;21.10;99.90
60033;DHT22;45905;50.570;10.428;2023-08-24T09:47:34;21.50;99.90
60033;DHT22;45905;50.570;10.428;2023-08-24T09:50:02;21.00;99.90
60033;DHT22;45905;50.570;10.428;2023-08-24T09:52:34;20.90;99.90
60033;DHT22;45905;50.570;10.428;2023-08-24T09:55:03;21.40;99.90
60033;DHT22;45905;50.570;10.428;2023-08-24T09:57:39;21.80;99.90
60033;DHT22;45905;50.570;10.428;2023-08-24T10:00:07;21.70;99.90
60033;DHT22;45905;50.570;10.428;2023-08-24T10:02:49;21.80;99.90
60033;DHT22;45905;50.570;10.428;2023-08-24T10:05:26;22.10;99.90
60033;DHT22;45905;50.570;10.428;2023-08-24T10:08:09;22.20;99.90
60033;DHT22;45905;50.570;10.428;2023-08-24T10:10:38;21.80;99.90
60033;DHT22;45905;50.570;10.428;2023-08-24T10:13:20;22.10;99.90
60033;DHT22;45905;50.570;10.428;2023-08-24T10:16:01;22.50;99.90
60033;DHT22;45905;50.570;10.428;2023-08-24T10:21:00;22.40;99.90
60033;DHT22;45905;50.570;10.428;2023-08-24T10:23:29;22.40;99.90
60033;DHT22;45905;50.570;10.428;2023-08-24T10:25:58;22.20;99.80
60033;DHT22;45905;50.570;10.428;2023-08-24T10:30:59;22.40;99.90
60033;DHT22;45905;50.570;10.428;2023-08-24T10:33:28;22.80;99.80
60033;DHT22;45905;50.570;10.428;2023-08-24T10:35:58;24.70;99.90
60033;DHT22;45905;50.570;10.428;2023-08-24T10:38:29;24.50;99.90
60033;DHT22;45905;50.570;10.428;2023-08-24T10:41:03;22.60;99.00
60033;DHT22;45905;50.570;10.428;2023-08-24T10:43:37;23.10;99.70
60033;DHT22;45905;50.570;10.428;2023-08-24T10:46:11;23.30;99.20
60033;DHT22;45905;50.570;10.428;2023-08-24T10:51:19;23.60;98.30
60033;DHT22;45905;50.570;10.428;2023-08-24T10:54:00;23.70;97.50
60033;DHT22;45905;50.570;10.428;2023-08-24T10:56:40;23.70;96.60
60033;DHT22;45905;50.570;10.428;2023-08-24T10:59:17;23.80;96.80
60033;DHT22;45905;50.570;10.428;2023-08-24T11:04:20;23.90;94.50
60033;DHT22;45905;50.570;10.428;2023-08-24T11:06:52;24.40;94.10
60033;DHT22;45905;50.570;10.428;2023-08-24T11:14:52;24.00;92.60
60033;DHT22;45905;50.570;10.428;2023-08-24T11:17:30;24.60;93.20
60033;DHT22;45905;50.570;10.428;2023-08-24T11:25:01;24.60;92.30
60033;DHT22;45905;50.570;10.428;2023-08-24T11:27:31;24.70;92.30
60033;DHT22;45905;50.570;10.428;2023-08-24T11:32:30;25.10;89.80
60033;DHT22;45905;50.570;10.428;2023-08-24T11:34:57;25.10;88.30
60033;DHT22;45905;50.570;10.428;2023-08-24T11:37:25;25.40;87.90
60033;DHT22;45905;50.570;10.428;2023-08-24T11:42:21;24.90;87.50
60033;DHT22;45905;50.570;10.428;2023-08-24T11:44:49;25.60;86.60
60033;DHT22;45905;50.570;10.428;2023-08-24T11:47:19;25.60;84.40
60033;DHT22;45905;50.570;10.428;2023-08-24T11:52:16;25.30;86.60
60033;DHT22;45905;50.570;10.428;2023-08-24T11:54:44;25.80;84.20
60033;DHT22;45905;50.570;10.428;2023-08-24T11:57:12;25.80;83.60
60033;DHT22;45905;50.570;10.428;2023-08-24T12:02:08;26.60;85.60
60033;DHT22;45905;50.570;10.428;2023-08-24T12:04:41;26.80;86.40
60033;DHT22;45905;50.570;10.428;2023-08-24T12:07:14;26.90;87.40
60033;DHT22;45905;50.570;10.428;2023-08-24T12:09:42;27.00;84.50
60033;DHT22;45905;50.570;10.428;2023-08-24T12:14:42;27.20;85.80
60033;DHT22;45905;50.570;10.428;2023-08-24T12:17:10;27.60;86.40
60033;DHT22;45905;50.570;10.428;2023-08-24T12:19:42;27.60;83.50
60033;DHT22;45905;50.570;10.428;2023-08-24T12:22:16;27.30;83.00
60033;DHT22;45905;50.570;10.428;2023-08-24T12:24:45;27.10;83.10
60033;DHT22;45905;50.570;10.428;2023-08-24T12:27:20;27.50;84.20
60033;DHT22;45905;50.570;10.428;2023-08-24T12:29:51;27.30;85.10
60033;DHT22;45905;50.570;10.428;2023-08-24T12:32:20;27.40;84.40
60033;DHT22;45905;50.570;10.428;2023-08-24T12:37:21;27.60;82.10
60033;DHT22;45905;50.570;10.428;2023-08-24T12:44:44;27.90;82.70
60033;DHT22;45905;50.570;10.428;2023-08-24T12:47:11;27.60;75.10
60033;DHT22;45905;50.570;10.428;2023-08-24T12:49:38;28.10;77.50
60033;DHT22;45905;50.570;10.428;2023-08-24T12:57:01;27.90;76.80
60033;DHT22;45905;50.570;10.428;2023-08-24T12:59:29;28.30;76.90
60033;DHT22;45905;50.570;10.428;2023-08-24T13:01:56;28.20;77.90
60033;DHT22;45905;50.570;10.428;2023-08-24T13:06:51;28.90;77.10
60033;DHT22;45905;50.570;10.428;2023-08-24T13:09:18;28.60;77.90
60033;DHT22;45905;50.570;10.428;2023-08-24T13:11:45;29.00;77.90
60033;DHT22;45905;50.570;10.428;2023-08-24T13:14:12;28.70;77.50
60033;DHT22;45905;50.570;10.428;2023-08-24T13:19:07;29.00;75.30
60033;DHT22;45905;50.570;10.428;2023-08-24T13:21:35;29.00;76.60
60033;DHT22;45905;50.570;10.428;2023-08-24T13:24:02;29.10;75.90
60033;DHT22;45905;50.570;10.428;2023-08-24T13:26:29;29.20;74.80
60033;DHT22;45905;50.570;10.428;2023-08-24T13:36:19;29.30;71.10
60033;DHT22;45905;50.570;10.428;2023-08-24T13:41:14;30.10;72.00
60033;DHT22;45905;50.570;10.428;2023-08-24T13:43:41;30.20;69.50
60033;DHT22;45905;50.570;10.428;2023-08-24T13:46:09;30.20;71.50
60033;DHT22;45905;50.570;10.428;2023-08-24T13:51:04;30.60;70.10
60033;DHT22;45905;50.570;10.428;2023-08-24T13:53:31;30.70;71.20
60033;DHT22;45905;50.570;10.428;2023-08-24T13:55:59;30.90;69.50
60033;DHT22;45905;50.570;10.428;2023-08-24T13:58:26;30.70;67.80
60033;DHT22;45905;50.570;10.428;2023-08-24T14:00:57;31.00;69.80
60033;DHT22;45905;50.570;10.428;2023-08-24T14:03:24;31.00;69.10
60033;DHT22;45905;50.570;10.428;2023-08-24T14:05:56;31.20;70.80
60033;DHT22;45905;50.570;10.428;2023-08-24T14:08:24;30.80;71.20
60033;DHT22;45905;50.570;10.428;2023-08-24T14:10:52;31.50;67.60
60033;DHT22;45905;50.570;10.428;2023-08-24T14:13:20;31.30;62.20
60033;DHT22;45905;50.570;10.428;2023-08-24T14:15:48;31.50;63.40
60033;DHT22;45905;50.570;10.428;2023-08-24T14:18:17;31.70;66.60
60033;DHT22;45905;50.570;10.428;2023-08-24T14:20:47;31.50;67.10
60033;DHT22;45905;50.570;10.428;2023-08-24T14:23:14;32.00;68.10
60033;DHT22;45905;50.570;10.428;2023-08-24T14:25:42;31.80;66.90
60033;DHT22;45905;50.570;10.428;2023-08-24T14:28:09;31.80;67.90
60033;DHT22;45905;50.570;10.428;2023-08-24T14:30:38;31.80;67.90
60033;DHT22;45905;50.570;10.428;2023-08-24T14:33:06;32.00;67.10
60033;DHT22;45905;50.570;10.428;2023-08-24T14:35:34;31.30;63.10
60033;DHT22;45905;50.570;10.428;2023-08-24T14:38:01;31.40;65.10
60033;DHT22;45905;50.570;10.428;2023-08-24T14:40:28;31.60;67.90
60033;DHT22;45905;50.570;10.428;2023-08-24T14:42:56;31.70;67.00
60033;DHT22;45905;50.570;10.428;2023-08-24T14:45:23;31.60;65.70
60033;DHT22;45905;50.570;10.428;2023-08-24T14:47:50;31.60;67.00
60033;DHT22;45905;50.570;10.428;2023-08-24T14:50:18;31.50;69.20
60033;DHT22;45905;50.570;10.428;2023-08-24T14:52:45;31.50;69.50
60033;DHT22;45905;50.570;10.428;2023-08-24T14:55:13;31.40;69.30
60033;DHT22;45905;50.570;10.428;2023-08-24T14:57:40;31.40;70.00
60033;DHT22;45905;50.570;10.428;2023-08-24T15:00:08;31.40;70.90
60033;DHT22;45905;50.570;10.428;2023-08-24T15:02:37;31.30;70.20
60033;DHT22;45905;50.570;10.428;2023-08-24T15:05:04;31.50;71.10
60033;DHT22;45905;50.570;10.428;2023-08-24T15:07:32;31.20;71.70
60033;DHT22;45905;50.570;10.428;2023-08-24T15:09:59;31.20;72.30
60033;DHT22;45905;50.570;10.428;2023-08-24T15:12:27;30.90;70.60
60033;DHT22;45905;50.570;10.428;2023-08-24T15:14:59;31.10;67.00
60033;DHT22;45905;50.570;10.428;2023-08-24T15:17:30;31.10;66.30
60033;DHT22;45905;50.570;10.428;2023-08-24T15:19:59;30.70;65.30
60033;DHT22;45905;50.570;10.428;2023-08-24T15:22:26;30.60;65.60
60033;DHT22;45905;50.570;10.428;2023-08-24T15:24:58;30.20;69.20
60033;DHT22;45905;50.570;10.428;2023-08-24T15:27:28;30.70;71.10
60033;DHT22;45905;50.570;10.428;2023-08-24T15:29:56;29.90;70.60
60033;DHT22;45905;50.570;10.428;2023-08-24T15:32:24;30.10;71.00
60033;DHT22;45905;50.570;10.428;2023-08-24T15:34:51;30.20;72.00
60033;DHT22;45905;50.570;10.428;2023-08-24T15:37:20;29.90;72.60
60033;DHT22;45905;50.570;10.428;2023-08-24T15:39:48;30.00;74.20
60033;DHT22;45905;50.570;10.428;2023-08-24T15:44:45;29.60;75.50
60033;DHT22;45905;50.570;10.428;2023-08-24T15:47:18;29.80;76.50
60033;DHT22;45905;50.570;10.428;2023-08-24T15:49:45;29.80;77.00
60033;DHT22;45905;50.570;10.428;2023-08-24T15:52:12;29.70;77.20
60033;DHT22;45905;50.570;10.428;2023-08-24T15:57:08;29.50;77.70
60033;DHT22;45905;50.570;10.428;2023-08-24T15:59:36;29.40;77.90
60033;DHT22;45905;50.570;10.428;2023-08-24T16:02:03;29.50;77.90
60033;DHT22;45905;50.570;10.428;2023-08-24T16:04:31;29.60;78.00
60033;DHT22;45905;50.570;10.428;2023-08-24T16:06:58;29.20;77.40
60033;DHT22;45905;50.570;10.428;2023-08-24T16:09:26;29.20;77.80
60033;DHT22;45905;50.570;10.428;2023-08-24T16:11:54;29.00;76.80
60033;DHT22;45905;50.570;10.428;2023-08-24T16:14:21;28.90;77.30
60033;DHT22;45905;50.570;10.428;2023-08-24T16:16:48;28.90;77.50
60033;DHT22;45905;50.570;10.428;2023-08-24T16:19:16;28.90;78.00
60033;DHT22;45905;50.570;10.428;2023-08-24T16:21:43;28.90;77.60
60033;DHT22;45905;50.570;10.428;2023-08-24T16:24:10;28.80;77.30
60033;DHT22;45905;50.570;10.428;2023-08-24T16:26:37;28.60;76.20
60033;DHT22;45905;50.570;10.428;2023-08-24T16:29:06;28.70;76.60
60033;DHT22;45905;50.570;10.428;2023-08-24T16:31:34;28.40;77.20
60033;DHT22;45905;50.570;10.428;2023-08-24T16:34:02;27.80;77.00
60033;DHT22;45905;50.570;10.428;2023-08-24T16:36:30;28.10;76.90
60033;DHT22;45905;50.570;10.428;2023-08-24T16:41:25;27.80;78.10
60033;DHT22;45905;50.570;10.428;2023-08-24T16:43:52;27.70;79.00